createdAt,value
2022-08-07T00:00:05.085Z,0.2
2022-08-07T00:05:01.326Z,0.3
2022-08-07T00:15:02.027Z,0.2
2022-08-07T00:30:02.848Z,0.2
2022-08-07T00:40:02.693Z,0.4
2022-08-07T00:45:16.563Z,0.6
2022-08-07T00:50:17.253Z,0.8
2022-08-07T00:55:04.509Z,1.0
2022-08-07T01:00:04.202Z,1.2
2022-08-07T01:05:01.219Z,1.1
2022-08-07T01:10:05.475Z,1.2
2022-08-07T01:15:06.156Z,1.0
2022-08-07T01:20:01.307Z,0.7
2022-08-07T01:25:02.372Z,0.6
2022-08-07T01:30:03.193Z,0.4
2022-08-07T01:40:01.350Z,0.5
2022-08-07T01:45:03.879Z,1.2
2022-08-07T01:50:03.010Z,1.3
2022-08-07T02:00:12.727Z,1.3
2022-08-07T02:05:07.927Z,1.9
2022-08-07T02:10:01.331Z,1.5
2022-08-07T02:15:08.936Z,1.9
2022-08-07T02:20:25.844Z,2.0
2022-08-07T02:25:01.324Z,2.2
2022-08-07T02:30:09.297Z,2.1
2022-08-07T02:35:01.333Z,2.2
2022-08-07T02:40:01.784Z,2.0
2022-08-07T02:45:59.583Z,2.3
2022-08-07T02:50:01.227Z,2.2
2022-08-07T02:55:28.207Z,1.8
2022-08-07T03:00:13.005Z,2.0
2022-08-07T03:05:04.118Z,2.2
2022-08-07T03:10:01.265Z,2.3
2022-08-07T03:15:09.148Z,2.6
2022-08-07T03:20:01.230Z,2.5
2022-08-07T03:25:02.122Z,2.2
2022-08-07T03:30:05.065Z,2.0
2022-08-07T03:35:17.281Z,1.8
2022-08-07T03:40:13.377Z,1.7
2022-08-07T03:45:06.482Z,2.2
2022-08-07T03:50:01.072Z,2.0
2022-08-07T03:55:07.209Z,2.2
2022-08-07T04:00:06.570Z,2.2
2022-08-07T04:05:01.352Z,2.3
2022-08-07T04:10:02.094Z,2.2
2022-08-07T04:15:06.044Z,2.6
2022-08-07T04:20:01.366Z,2.5
2022-08-07T04:30:36.120Z,2.4
2022-08-07T04:35:01.294Z,2.0
2022-08-07T04:40:01.392Z,1.9
2022-08-07T04:45:09.262Z,1.8
2022-08-07T04:50:17.231Z,1.9
2022-08-07T04:58:09.124Z,2.2
2022-08-07T05:00:46.674Z,2.5
2022-08-07T05:05:01.196Z,3.6
2022-08-07T05:10:11.717Z,4.8
2022-08-07T05:15:07.837Z,5.9
2022-08-07T05:20:04.393Z,6.7
2022-08-07T05:25:01.717Z,7.2
2022-08-07T05:30:01.716Z,7.5
2022-08-07T05:35:03.252Z,7.1
2022-08-07T05:40:18.186Z,6.6
2022-08-07T05:45:26.493Z,6.1
2022-08-07T05:50:02.495Z,5.8
2022-08-07T05:55:14.883Z,5.2
2022-08-07T06:00:03.451Z,5.0
2022-08-07T06:05:01.237Z,4.5
2022-08-07T06:10:15.902Z,4.6
2022-08-07T06:15:08.398Z,5.4
2022-08-07T06:20:25.329Z,4.9
2022-08-07T06:25:04.232Z,5.1
2022-08-07T06:30:01.502Z,5.7
2022-08-07T06:35:02.195Z,5.5
2022-08-07T06:40:20.548Z,5.0
2022-08-07T06:45:05.471Z,5.6
2022-08-07T07:00:18.958Z,5.3
2022-08-07T07:05:02.909Z,5.7
2022-08-07T07:10:01.597Z,5.4
2022-08-07T07:15:32.406Z,5.2
2022-08-07T07:20:07.634Z,4.9
2022-08-07T07:25:03.192Z,4.8
2022-08-07T07:30:38.243Z,4.1
2022-08-07T07:35:01.916Z,4.5
2022-08-07T07:40:10.491Z,3.7
2022-08-07T07:45:04.779Z,4.2
2022-08-07T07:50:31.913Z,4.6
2022-08-07T07:55:04.692Z,4.5
2022-08-07T08:00:03.670Z,4.1
2022-08-07T08:05:01.219Z,4.6
2022-08-07T08:10:05.152Z,4.0
2022-08-07T08:15:07.942Z,3.8
2022-08-07T08:20:16.614Z,3.9
2022-08-07T08:25:18.988Z,4.0
2022-08-07T08:30:07.254Z,3.7
2022-08-07T08:35:03.538Z,3.4
2022-08-07T08:40:06.677Z,3.2
2022-08-07T08:45:18.741Z,2.4
2022-08-07T08:50:13.250Z,1.9
2022-08-07T08:55:20.740Z,1.4
2022-08-07T09:00:06.698Z,1.0
2022-08-07T09:05:11.559Z,0.6
2022-08-07T09:10:19.310Z,0.7
2022-08-07T09:16:21.229Z,0.7
2022-08-07T09:20:30.742Z,0.9
2022-08-07T09:25:25.563Z,1.0
2022-08-07T09:30:13.889Z,1.2
2022-08-07T09:35:04.504Z,1.1
2022-08-07T09:40:00.963Z,1.3
2022-08-07T09:46:29.128Z,1.4
2022-08-07T09:55:17.174Z,1.2
2022-08-07T10:00:07.339Z,1.4
2022-08-07T10:05:01.361Z,1.0
2022-08-07T10:15:19.137Z,0.8
2022-08-07T10:20:20.685Z,0.6
2022-08-07T10:30:04.930Z,0.8
2022-08-07T10:35:01.168Z,0.6
2022-08-07T10:40:18.914Z,0.8
2022-08-07T10:45:17.009Z,0.9
2022-08-07T10:50:09.069Z,0.5
2022-08-07T10:55:02.103Z,0.9
2022-08-07T11:00:06.313Z,1.0
2022-08-07T11:05:35.553Z,0.8
2022-08-07T11:15:09.521Z,1.1
2022-08-07T11:20:06.292Z,0.5
2022-08-07T11:25:02.689Z,0.7
2022-08-07T11:30:19.236Z,0.8
2022-08-07T11:40:19.919Z,0.5
2022-08-07T11:45:12.445Z,0.7
2022-08-07T11:50:25.206Z,0.5
2022-08-07T11:55:01.429Z,0.4
2022-08-07T12:00:21.204Z,0.2
2022-08-07T12:05:01.077Z,0.4
2022-08-07T12:10:02.067Z,0.6
2022-08-07T12:15:17.098Z,0.7
2022-08-07T12:20:05.469Z,1.2
2022-08-07T12:30:05.364Z,1.2
2022-08-07T12:45:11.831Z,0.8
2022-08-07T13:00:03.348Z,0.5
2022-08-07T13:05:02.411Z,0.7
2022-08-07T13:10:37.452Z,0.9
2022-08-07T13:15:23.364Z,1.0
2022-08-07T13:25:08.475Z,0.9
2022-08-07T13:30:06.360Z,0.6
2022-08-07T13:35:21.298Z,0.7
2022-08-07T13:46:07.466Z,1.1
2022-08-07T13:50:32.309Z,1.2
2022-08-07T13:55:01.344Z,1.4
2022-08-07T14:00:01.710Z,1.1
2022-08-07T14:10:17.911Z,0.5
2022-08-07T14:15:04.404Z,0.5
2022-08-07T14:20:39.689Z,0.7
2022-08-07T14:25:01.473Z,0.9
2022-08-07T14:30:14.674Z,1.0
2022-08-07T14:35:01.517Z,1.2
2022-08-07T14:40:15.169Z,1.3
2022-08-07T14:45:21.069Z,1.0
2022-08-07T14:50:11.250Z,0.7
2022-08-07T14:55:01.492Z,0.9
2022-08-07T15:00:07.944Z,0.7
2022-08-07T15:05:02.111Z,0.4
2022-08-07T15:10:04.761Z,0.6
2022-08-07T15:15:17.478Z,1.2
2022-08-07T15:30:17.148Z,1.7
2022-08-07T15:35:01.189Z,1.8
2022-08-07T15:40:01.403Z,1.3
2022-08-07T15:45:04.716Z,0.9
2022-08-07T15:50:04.755Z,1.2
2022-08-07T16:15:42.007Z,0.2
2022-08-07T16:20:33.174Z,0.7
2022-08-07T16:25:01.382Z,0.8
2022-08-07T16:30:31.348Z,1.1
2022-08-07T16:35:01.291Z,1.3
2022-08-07T16:40:01.447Z,1.4
2022-08-07T16:46:21.635Z,1.4
2022-08-07T16:55:03.281Z,1.2
2022-08-07T17:00:14.914Z,1.0
2022-08-07T17:10:05.766Z,1.1
2022-08-07T17:15:15.978Z,1.1
2022-08-07T17:30:19.945Z,1.2
2022-08-07T17:45:16.762Z,1.2
2022-08-07T17:55:14.291Z,1.0
2022-08-07T18:00:05.062Z,0.8
2022-08-07T18:10:05.516Z,0.9
2022-08-07T18:15:15.391Z,0.9
2022-08-07T18:45:39.656Z,1.0
2022-08-07T18:50:06.880Z,1.5
2022-08-07T18:56:01.528Z,1.4
2022-08-07T19:02:17.720Z,1.6
2022-08-07T19:06:02.902Z,1.7
2022-08-07T19:11:01.518Z,1.9
2022-08-07T19:21:51.034Z,2.2
2022-08-07T19:26:43.425Z,2.6
2022-08-07T19:38:15.075Z,2.8
2022-08-07T19:44:21.535Z,3.4
2022-08-07T19:56:10.088Z,3.1
2022-08-07T20:07:09.017Z,2.9
2022-08-07T20:12:23.170Z,2.2
2022-08-07T20:18:34.441Z,1.8
2022-08-07T20:23:11.073Z,1.6
2022-08-07T20:40:05.234Z,1.8
2022-08-07T20:45:04.323Z,2.0
2022-08-07T20:50:03.629Z,2.4
2022-08-07T20:55:04.958Z,3.6
2022-08-07T21:11:02.981Z,4.1
2022-08-07T21:16:02.818Z,4.3
2022-08-07T21:21:02.631Z,3.5
2022-08-07T21:26:18.714Z,4.4
2022-08-07T21:32:43.207Z,4.6
2022-08-07T21:37:02.233Z,4.3
2022-08-07T21:42:02.606Z,4.0
2022-08-07T21:47:12.194Z,3.7
2022-08-07T21:52:05.931Z,2.9
2022-08-07T22:02:07.854Z,3.0
2022-08-07T22:12:05.117Z,3.2
2022-08-07T22:17:01.765Z,3.7
2022-08-07T22:22:05.460Z,3.8
2022-08-07T22:27:01.700Z,3.7
2022-08-07T22:38:04.816Z,3.6
2022-08-07T22:43:01.544Z,3.5
2022-08-07T22:48:01.537Z,3.6
2022-08-07T22:53:01.539Z,4.4
2022-08-07T23:03:01.551Z,4.9
2022-08-07T23:08:30.464Z,4.4
2022-08-07T23:13:01.464Z,4.8
2022-08-07T23:18:01.473Z,4.3
2022-08-07T23:23:01.444Z,5.0
2022-08-07T23:28:20.966Z,5.3
2022-08-07T23:34:18.750Z,5.6
2022-08-07T23:38:02.194Z,5.2
2022-08-07T23:43:01.445Z,5.6
2022-08-07T23:48:02.798Z,5.2
2022-08-07T23:53:06.859Z,4.2
2022-08-07T23:58:01.530Z,4.3
